createdAt,value
2023-02-27T00:02:46.700Z,98887.00
2023-02-27T00:05:34.251Z,98887.00
2023-02-27T00:08:21.916Z,98889.00
2023-02-27T00:11:09.541Z,98890.00
2023-02-27T00:13:57.066Z,98901.00
2023-02-27T00:16:44.647Z,98907.00
2023-02-27T00:19:32.153Z,98905.00
2023-02-27T00:22:19.666Z,98900.00
2023-02-27T00:25:09.426Z,98915.00
2023-02-27T00:27:57.129Z,98917.00
2023-02-27T00:30:44.658Z,98919.00
2023-02-27T00:33:32.266Z,98918.00
2023-02-27T00:36:19.848Z,98915.00
2023-02-27T00:39:07.357Z,98927.00
2023-02-27T00:41:55.180Z,98916.00
2023-02-27T00:44:42.782Z,98917.00
2023-02-27T00:47:30.434Z,98912.00
2023-02-27T00:50:18.053Z,98930.00
2023-02-27T00:53:05.920Z,98929.00
2023-02-27T00:55:53.418Z,98927.00
2023-02-27T00:58:40.970Z,98924.00
2023-02-27T01:01:28.699Z,98920.00
2023-02-27T01:04:16.489Z,98924.00
2023-02-27T01:07:04.257Z,98924.00
2023-02-27T01:09:52.048Z,98921.00
2023-02-27T01:12:41.018Z,98926.00
2023-02-27T01:15:29.038Z,98920.00
2023-02-27T01:18:16.655Z,98921.00
2023-02-27T01:21:05.009Z,98926.00
2023-02-27T01:23:52.687Z,98926.00
2023-02-27T01:26:40.383Z,98919.00
2023-02-27T01:29:28.364Z,98925.00
2023-02-27T01:32:16.801Z,98924.00
2023-02-27T01:35:05.881Z,98923.00
2023-02-27T01:37:53.378Z,98929.00
2023-02-27T01:40:43.448Z,98927.00
2023-02-27T01:43:31.043Z,98931.00
2023-02-27T01:46:18.607Z,98927.00
2023-02-27T01:49:32.896Z,98920.00
2023-02-27T01:52:20.772Z,98935.00
2023-02-27T01:55:13.240Z,98924.00
2023-02-27T01:58:01.368Z,98924.00
2023-02-27T02:00:49.381Z,98913.00
2023-02-27T02:04:01.417Z,98912.00
2023-02-27T02:06:57.351Z,98925.00
2023-02-27T02:09:59.863Z,98933.00
2023-02-27T02:12:48.056Z,98931.00
2023-02-27T02:15:46.631Z,98933.00
2023-02-27T02:19:08.243Z,98929.00
2023-02-27T02:22:45.521Z,98931.00
2023-02-27T02:26:24.861Z,98936.00
2023-02-27T02:29:58.267Z,98931.00
2023-02-27T02:33:04.350Z,98939.00
2023-02-27T02:36:23.411Z,98938.00
2023-02-27T02:39:46.312Z,98932.00
2023-02-27T02:43:12.895Z,98939.00
2023-02-27T02:46:19.228Z,98939.00
2023-02-27T02:49:17.535Z,98944.00
2023-02-27T02:52:38.543Z,98943.00
2023-02-27T02:55:58.072Z,98942.00
2023-02-27T02:59:06.038Z,98946.00
2023-02-27T03:02:26.387Z,98951.00
2023-02-27T03:05:27.485Z,98956.00
2023-02-27T03:08:25.047Z,98947.00
2023-02-27T03:11:13.016Z,98957.00
2023-02-27T03:14:17.154Z,98960.00
2023-02-27T03:17:15.623Z,98968.00
2023-02-27T03:20:11.026Z,98964.00
2023-02-27T03:23:05.963Z,98962.00
2023-02-27T03:25:57.849Z,98958.00
2023-02-27T03:29:01.739Z,98963.00
2023-02-27T03:32:02.378Z,98970.00
2023-02-27T03:34:50.537Z,98968.00
2023-02-27T03:38:01.606Z,98979.00
2023-02-27T03:41:09.305Z,98970.00
2023-02-27T03:44:33.210Z,98978.00
2023-02-27T03:47:21.730Z,98973.00
2023-02-27T03:50:10.224Z,98979.00
2023-02-27T03:52:58.094Z,98982.00
2023-02-27T03:55:49.264Z,98985.00
2023-02-27T03:58:37.211Z,98984.00
2023-02-27T04:01:25.999Z,98993.00
2023-02-27T04:04:18.312Z,98990.00
2023-02-27T04:07:37.735Z,99000.00
2023-02-27T04:10:58.418Z,98993.00
2023-02-27T04:13:51.769Z,98996.00
2023-02-27T04:17:13.998Z,98998.00
2023-02-27T04:20:17.980Z,98991.00
2023-02-27T04:23:36.046Z,98994.00
2023-02-27T04:27:06.903Z,98990.00
2023-02-27T04:29:59.007Z,99001.00
2023-02-27T04:32:59.926Z,99000.00
2023-02-27T04:35:57.194Z,99010.00
2023-02-27T04:39:10.127Z,99001.00
2023-02-27T04:42:02.306Z,99005.00
2023-02-27T04:44:54.725Z,99013.00
2023-02-27T04:48:26.439Z,99007.00
2023-02-27T04:51:25.155Z,99009.00
2023-02-27T04:54:19.353Z,99014.00
2023-02-27T04:57:12.886Z,99007.00
2023-02-27T05:00:09.405Z,99014.00
2023-02-27T05:03:16.668Z,99024.00
2023-02-27T05:06:04.759Z,99020.00
2023-02-27T05:09:12.894Z,99015.00
2023-02-27T05:12:03.756Z,99021.00
2023-02-27T05:15:22.370Z,99017.00
2023-02-27T05:18:17.119Z,99022.00
2023-02-27T05:21:28.344Z,99019.00
2023-02-27T05:24:47.002Z,99021.00
2023-02-27T05:27:47.607Z,99028.00
2023-02-27T05:31:03.426Z,99026.00
2023-02-27T05:34:18.510Z,99037.00
2023-02-27T05:37:18.342Z,99028.00
2023-02-27T05:40:10.938Z,99031.00
2023-02-27T05:43:10.906Z,99033.00
2023-02-27T05:46:13.635Z,99034.00
2023-02-27T05:49:28.052Z,99036.00
2023-02-27T05:52:21.947Z,99040.00
2023-02-27T05:55:24.148Z,99050.00
2023-02-27T05:58:30.573Z,99044.00
2023-02-27T06:01:18.260Z,99048.00
2023-02-27T06:04:05.725Z,99051.00
2023-02-27T06:06:54.247Z,99057.00
2023-02-27T06:09:44.717Z,99055.00
2023-02-27T06:12:32.392Z,99058.00
2023-02-27T06:15:19.948Z,99067.00
2023-02-27T06:18:07.436Z,99065.00
2023-02-27T06:20:55.105Z,99062.00
2023-02-27T06:23:42.636Z,99069.00
2023-02-27T06:26:30.321Z,99067.00
2023-02-27T06:29:17.889Z,99078.00
2023-02-27T06:32:05.637Z,99078.00
2023-02-27T06:34:54.469Z,99085.00
2023-02-27T06:37:42.031Z,99083.00
2023-02-27T06:40:29.620Z,99082.00
2023-02-27T06:43:17.205Z,99083.00
2023-02-27T06:46:05.088Z,99094.00
2023-02-27T06:48:52.625Z,99086.00
2023-02-27T06:51:40.230Z,99090.00
2023-02-27T06:54:27.806Z,99095.00
2023-02-27T06:57:15.394Z,99099.00
2023-02-27T07:00:04.552Z,99099.00
2023-02-27T07:02:52.138Z,99105.00
2023-02-27T07:05:41.445Z,99112.00
2023-02-27T07:08:36.182Z,99116.00
2023-02-27T07:11:23.670Z,99115.00
2023-02-27T07:14:12.569Z,99112.00
2023-02-27T07:17:04.375Z,99117.00
2023-02-27T07:19:51.872Z,99122.00
2023-02-27T07:22:41.785Z,99124.00
2023-02-27T07:25:29.973Z,99129.00
2023-02-27T07:28:19.080Z,99122.00
2023-02-27T07:31:06.493Z,99131.00
2023-02-27T07:33:53.969Z,99130.00
2023-02-27T07:36:41.620Z,99126.00
2023-02-27T07:39:29.127Z,99131.00
2023-02-27T07:42:16.830Z,99136.00
2023-02-27T07:45:06.066Z,99130.00
2023-02-27T07:47:53.569Z,99141.00
2023-02-27T07:50:41.089Z,99135.00
2023-02-27T07:53:28.555Z,99135.00
2023-02-27T07:56:16.348Z,99132.00
2023-02-27T07:59:04.001Z,99140.00
2023-02-27T08:01:51.616Z,99138.00
2023-02-27T08:04:39.070Z,99147.00
2023-02-27T08:07:26.673Z,99145.00
2023-02-27T08:10:16.776Z,99149.00
2023-02-27T08:13:04.245Z,99144.00
2023-02-27T08:15:51.910Z,99144.00
2023-02-27T08:18:40.691Z,99139.00
2023-02-27T08:21:29.531Z,99151.00
2023-02-27T08:24:17.375Z,99149.00
2023-02-27T08:27:04.790Z,99139.00
2023-02-27T08:29:52.248Z,99142.00
2023-02-27T08:32:39.962Z,99150.00
2023-02-27T08:35:27.494Z,99139.00
2023-02-27T08:38:14.934Z,99138.00
2023-02-27T08:41:03.821Z,99146.00
2023-02-27T08:43:51.242Z,99132.00
2023-02-27T08:46:39.014Z,99118.00
2023-02-27T08:49:26.519Z,99144.00
2023-02-27T08:52:13.972Z,99150.00
2023-02-27T08:55:01.480Z,99144.00
2023-02-27T08:57:49.034Z,99143.00
2023-02-27T09:00:36.577Z,99141.00
2023-02-27T09:03:28.818Z,99148.00
2023-02-27T09:06:16.326Z,99154.00
2023-02-27T09:09:05.040Z,99163.00
2023-02-27T09:11:52.565Z,99155.00
2023-02-27T09:14:40.279Z,99165.00
2023-02-27T09:17:27.901Z,99160.00
2023-02-27T09:20:16.024Z,99165.00
2023-02-27T09:23:04.462Z,99164.00
2023-02-27T09:25:51.998Z,99175.00
2023-02-27T09:28:40.237Z,99182.00
2023-02-27T09:31:33.106Z,99175.00
2023-02-27T09:34:20.973Z,99171.00
2023-02-27T09:37:08.432Z,99181.00
2023-02-27T09:39:55.892Z,99183.00
2023-02-27T09:42:46.724Z,99190.00
2023-02-27T09:45:39.448Z,99184.00
2023-02-27T09:48:50.972Z,99190.00
2023-02-27T09:51:38.442Z,99185.00
2023-02-27T09:54:33.717Z,99188.00
2023-02-27T09:57:56.012Z,99187.00
2023-02-27T10:00:46.452Z,99192.00
2023-02-27T10:03:58.538Z,99196.00
2023-02-27T10:07:20.126Z,99192.00
2023-02-27T10:10:55.135Z,99191.00
2023-02-27T10:14:04.584Z,99206.00
2023-02-27T10:16:54.594Z,99211.00
2023-02-27T10:19:47.117Z,99212.00
2023-02-27T10:22:42.087Z,99200.00
2023-02-27T10:25:39.236Z,99200.00
2023-02-27T10:28:27.175Z,99209.00
2023-02-27T10:31:33.577Z,99211.00
2023-02-27T10:34:24.097Z,99207.00
2023-02-27T10:37:17.982Z,99204.00
2023-02-27T10:40:07.313Z,99204.00
2023-02-27T10:42:57.820Z,99207.00
2023-02-27T10:45:45.401Z,99212.00
2023-02-27T10:48:33.601Z,99216.00
2023-02-27T10:51:26.874Z,99203.00
2023-02-27T10:54:19.648Z,99205.00
2023-02-27T10:57:18.128Z,99194.00
2023-02-27T11:00:22.505Z,99195.00
2023-02-27T11:03:29.336Z,99194.00
2023-02-27T11:06:26.715Z,99192.00
2023-02-27T11:09:28.021Z,99186.00
2023-02-27T11:12:28.892Z,99187.00
2023-02-27T11:15:16.236Z,99174.00
2023-02-27T11:18:31.146Z,99175.00
2023-02-27T11:21:30.661Z,99180.00
2023-02-27T11:24:20.827Z,99172.00
2023-02-27T11:27:37.739Z,99171.00
2023-02-27T11:30:31.947Z,99174.00
2023-02-27T11:33:21.323Z,99174.00
2023-02-27T11:36:09.782Z,99172.00
2023-02-27T11:38:57.733Z,99174.00
2023-02-27T11:41:45.363Z,99166.00
2023-02-27T11:44:50.782Z,99172.00
2023-02-27T11:47:41.887Z,99166.00
2023-02-27T11:51:08.250Z,99170.00
2023-02-27T11:54:45.547Z,99169.00
2023-02-27T11:57:43.956Z,99171.00
2023-02-27T12:00:38.765Z,99169.00
2023-02-27T12:04:02.006Z,99168.00
2023-02-27T12:07:28.128Z,99161.00
2023-02-27T12:10:21.736Z,99160.00
2023-02-27T12:13:21.825Z,99160.00
2023-02-27T12:16:34.840Z,99157.00
2023-02-27T12:19:38.401Z,99154.00
2023-02-27T12:22:37.650Z,99160.00
2023-02-27T12:25:37.308Z,99173.00
2023-02-27T12:28:43.593Z,99161.00
2023-02-27T12:31:36.980Z,99158.00
2023-02-27T12:34:49.028Z,99156.00
2023-02-27T12:37:38.281Z,99152.00
2023-02-27T12:41:16.159Z,99152.00
2023-02-27T12:44:45.659Z,99150.00
2023-02-27T12:47:43.795Z,99155.00
2023-02-27T12:51:11.051Z,99150.00
2023-02-27T12:54:26.986Z,99150.00
2023-02-27T12:57:42.503Z,99152.00
2023-02-27T13:00:46.410Z,99153.00
2023-02-27T13:04:00.670Z,99156.00
2023-02-27T13:07:35.970Z,99160.00
2023-02-27T13:10:38.639Z,99162.00
2023-02-27T13:14:04.247Z,99157.00
2023-02-27T13:17:38.538Z,99138.00
2023-02-27T13:20:44.192Z,99150.00
2023-02-27T13:24:26.599Z,99153.00
2023-02-27T13:27:33.198Z,99154.00
2023-02-27T13:30:43.378Z,99162.00
2023-02-27T13:33:50.473Z,99162.00
2023-02-27T13:36:42.809Z,99159.00
2023-02-27T13:39:48.869Z,99165.00
2023-02-27T13:42:36.401Z,99162.00
2023-02-27T13:45:52.218Z,99157.00
2023-02-27T13:48:43.127Z,99159.00
2023-02-27T13:51:37.594Z,99164.00
2023-02-27T13:54:33.674Z,99160.00
2023-02-27T13:57:25.892Z,99160.00
2023-02-27T14:00:27.758Z,99158.00
2023-02-27T14:03:26.376Z,99163.00
2023-02-27T14:06:14.030Z,99161.00
2023-02-27T14:09:14.433Z,99170.00
2023-02-27T14:12:06.413Z,99160.00
2023-02-27T14:14:54.806Z,99159.00
2023-02-27T14:17:45.371Z,99157.00
2023-02-27T14:20:32.766Z,99154.00
2023-02-27T14:23:28.207Z,99151.00
2023-02-27T14:26:20.702Z,99154.00
2023-02-27T14:29:31.115Z,99146.00
2023-02-27T14:32:24.396Z,99139.00
2023-02-27T14:35:16.411Z,99154.00
2023-02-27T14:38:11.825Z,99157.00
2023-02-27T14:41:08.303Z,99174.00
2023-02-27T14:43:58.126Z,99164.00
2023-02-27T14:46:46.102Z,99165.00
2023-02-27T14:49:36.222Z,99165.00
2023-02-27T14:52:31.710Z,99175.00
2023-02-27T14:55:29.515Z,99178.00
2023-02-27T14:58:21.775Z,99177.00
2023-02-27T15:01:11.179Z,99172.00
2023-02-27T15:04:00.672Z,99175.00
2023-02-27T15:06:54.645Z,99179.00
2023-02-27T15:09:44.887Z,99193.00
2023-02-27T15:12:38.209Z,99186.00
2023-02-27T15:15:25.892Z,99184.00
2023-02-27T15:18:15.213Z,99189.00
2023-02-27T15:21:02.676Z,99194.00
2023-02-27T15:23:59.809Z,99197.00
2023-02-27T15:26:53.451Z,99192.00
2023-02-27T15:29:45.597Z,99196.00
2023-02-27T15:32:41.953Z,99194.00
2023-02-27T15:35:38.136Z,99194.00
2023-02-27T15:38:36.167Z,99196.00
2023-02-27T15:41:23.851Z,99202.00
2023-02-27T15:44:14.147Z,99201.00
2023-02-27T15:47:02.416Z,99206.00
2023-02-27T15:49:59.582Z,99210.00
2023-02-27T15:53:13.119Z,99216.00
2023-02-27T15:56:06.718Z,99212.00
2023-02-27T15:59:00.191Z,99215.00
2023-02-27T16:01:49.956Z,99222.00
2023-02-27T16:04:38.328Z,99221.00
2023-02-27T16:07:29.549Z,99228.00
2023-02-27T16:10:35.774Z,99236.00
2023-02-27T16:13:35.128Z,99226.00
2023-02-27T16:16:32.695Z,99238.00
2023-02-27T16:19:32.609Z,99227.00
2023-02-27T16:22:22.321Z,99235.00
2023-02-27T16:25:12.069Z,99238.00
2023-02-27T16:27:59.760Z,99237.00
2023-02-27T16:30:54.555Z,99245.00
2023-02-27T16:33:42.863Z,99250.00
2023-02-27T16:36:32.824Z,99256.00
2023-02-27T16:39:20.334Z,99257.00
2023-02-27T16:42:10.591Z,99254.00
2023-02-27T16:44:58.047Z,99266.00
2023-02-27T16:47:49.713Z,99254.00
2023-02-27T16:50:43.709Z,99261.00
2023-02-27T16:53:31.199Z,99260.00
2023-02-27T16:56:32.308Z,99272.00
2023-02-27T16:59:31.761Z,99278.00
2023-02-27T17:02:19.536Z,99277.00
2023-02-27T17:05:08.284Z,99280.00
2023-02-27T17:07:55.822Z,99285.00
2023-02-27T17:10:43.238Z,99285.00
2023-02-27T17:13:30.740Z,99283.00
2023-02-27T17:16:21.515Z,99292.00
2023-02-27T17:19:09.061Z,99295.00
2023-02-27T17:21:56.856Z,99290.00
2023-02-27T17:24:44.490Z,99307.00
2023-02-27T17:27:32.072Z,99305.00
2023-02-27T17:30:20.246Z,99314.00
2023-02-27T17:33:07.753Z,99313.00
2023-02-27T17:36:06.675Z,99312.00
2023-02-27T17:39:00.784Z,99318.00
2023-02-27T17:41:48.435Z,99313.00
2023-02-27T17:44:36.799Z,99320.00
2023-02-27T17:47:24.206Z,99313.00
2023-02-27T17:50:11.692Z,99320.00
2023-02-27T17:52:59.142Z,99319.00
2023-02-27T17:55:46.532Z,99326.00
2023-02-27T17:58:34.440Z,99323.00
2023-02-27T18:01:26.113Z,99327.00
2023-02-27T18:04:14.571Z,99332.00
2023-02-27T18:07:02.118Z,99323.00
2023-02-27T18:09:49.707Z,99334.00
2023-02-27T18:12:37.837Z,99334.00
2023-02-27T18:15:25.455Z,99347.00
2023-02-27T18:18:13.531Z,99336.00
2023-02-27T18:21:09.270Z,99340.00
2023-02-27T18:23:56.811Z,99337.00
2023-02-27T18:26:45.454Z,99337.00
2023-02-27T18:29:32.936Z,99338.00
2023-02-27T18:32:21.132Z,99347.00
2023-02-27T18:35:10.423Z,99339.00
2023-02-27T18:37:58.152Z,99345.00
2023-02-27T18:40:45.910Z,99349.00
2023-02-27T18:43:33.947Z,99346.00
2023-02-27T18:46:21.744Z,99352.00
2023-02-27T18:49:09.842Z,99357.00
2023-02-27T18:51:57.360Z,99360.00
2023-02-27T18:54:44.893Z,99361.00
2023-02-27T18:57:32.364Z,99362.00
2023-02-27T19:00:22.042Z,99362.00
2023-02-27T19:03:09.706Z,99361.00
2023-02-27T19:05:58.065Z,99357.00
2023-02-27T19:08:46.528Z,99368.00
2023-02-27T19:11:35.635Z,99362.00
2023-02-27T19:14:23.088Z,99360.00
2023-02-27T19:17:10.547Z,99362.00
2023-02-27T19:19:57.972Z,99365.00
2023-02-27T19:22:45.512Z,99365.00
2023-02-27T19:25:32.995Z,99364.00
2023-02-27T19:28:20.388Z,99369.00
2023-02-27T19:31:15.001Z,99369.00
2023-02-27T19:34:02.663Z,99367.00
2023-02-27T19:36:50.194Z,99360.00
2023-02-27T19:39:37.790Z,99370.00
2023-02-27T19:42:26.138Z,99365.00
2023-02-27T19:45:14.006Z,99373.00
2023-02-27T19:48:01.937Z,99377.00
2023-02-27T19:50:49.837Z,99378.00
2023-02-27T19:53:39.923Z,99385.00
2023-02-27T19:56:29.833Z,99374.00
2023-02-27T19:59:18.283Z,99374.00
2023-02-27T20:02:06.257Z,99379.00
2023-02-27T20:04:54.779Z,99379.00
2023-02-27T20:07:42.557Z,99377.00
2023-02-27T20:10:30.029Z,99379.00
2023-02-27T20:13:17.476Z,99380.00
2023-02-27T20:16:09.330Z,99377.00
2023-02-27T20:18:57.260Z,99385.00
2023-02-27T20:21:46.578Z,99377.00
2023-02-27T20:24:34.057Z,99385.00
2023-02-27T20:27:21.586Z,99387.00
2023-02-27T20:30:11.383Z,99387.00
2023-02-27T20:32:58.836Z,99389.00
2023-02-27T20:35:47.141Z,99377.00
2023-02-27T20:38:39.200Z,99383.00
2023-02-27T20:41:29.544Z,99385.00
2023-02-27T20:44:18.089Z,99386.00
2023-02-27T20:47:05.893Z,99385.00
2023-02-27T20:49:53.320Z,99376.00
2023-02-27T20:52:41.052Z,99379.00
2023-02-27T20:55:28.562Z,99380.00
2023-02-27T20:58:16.991Z,99378.00
2023-02-27T21:01:10.631Z,99378.00
2023-02-27T21:03:59.791Z,99379.00
2023-02-27T21:06:47.351Z,99372.00
2023-02-27T21:09:34.870Z,99377.00
2023-02-27T21:12:22.361Z,99370.00
2023-02-27T21:15:10.531Z,99362.00
2023-02-27T21:17:58.024Z,99365.00
2023-02-27T21:20:46.130Z,99368.00
2023-02-27T21:23:41.583Z,99361.00
2023-02-27T21:26:38.099Z,99367.00
2023-02-27T21:29:25.950Z,99366.00
2023-02-27T21:32:13.575Z,99363.00
2023-02-27T21:35:01.118Z,99352.00
2023-02-27T21:37:48.565Z,99357.00
2023-02-27T21:40:35.962Z,99350.00
2023-02-27T21:43:23.423Z,99355.00
2023-02-27T21:46:13.675Z,99345.00
2023-02-27T21:49:02.275Z,99352.00
2023-02-27T21:51:50.574Z,99355.00
2023-02-27T21:54:38.560Z,99355.00
2023-02-27T21:57:26.076Z,99353.00
2023-02-27T22:00:14.054Z,99355.00
2023-02-27T22:03:01.636Z,99356.00
2023-02-27T22:05:49.164Z,99345.00
2023-02-27T22:08:37.207Z,99354.00
2023-02-27T22:11:28.047Z,99348.00
2023-02-27T22:14:16.371Z,99359.00
2023-02-27T22:17:03.927Z,99353.00
2023-02-27T22:19:51.422Z,99351.00
2023-02-27T22:22:39.053Z,99350.00
2023-02-27T22:25:26.521Z,99353.00
2023-02-27T22:28:14.030Z,99351.00
2023-02-27T22:31:19.772Z,99352.00
2023-02-27T22:34:12.678Z,99344.00
2023-02-27T22:37:00.237Z,99336.00
2023-02-27T22:39:47.732Z,99345.00
2023-02-27T22:42:35.269Z,99339.00
2023-02-27T22:45:22.774Z,99341.00
2023-02-27T22:48:10.503Z,99338.00
2023-02-27T22:51:14.588Z,99344.00
2023-02-27T22:54:05.232Z,99339.00
2023-02-27T22:56:55.218Z,99347.00
2023-02-27T22:59:44.036Z,99336.00
2023-02-27T23:02:33.504Z,99347.00
2023-02-27T23:05:20.976Z,99342.00
2023-02-27T23:08:08.451Z,99338.00
2023-02-27T23:10:56.025Z,99340.00
2023-02-27T23:13:44.376Z,99345.00
2023-02-27T23:16:32.024Z,99342.00
2023-02-27T23:19:21.295Z,99336.00
2023-02-27T23:22:08.907Z,99345.00
2023-02-27T23:24:56.344Z,99344.00
2023-02-27T23:27:43.821Z,99338.00
2023-02-27T23:30:32.675Z,99346.00
2023-02-27T23:33:20.120Z,99342.00
2023-02-27T23:36:07.874Z,99340.00
2023-02-27T23:38:56.309Z,99339.00
2023-02-27T23:41:45.144Z,99343.00
2023-02-27T23:44:51.398Z,99327.00
2023-02-27T23:47:42.289Z,99329.00
2023-02-27T23:50:37.550Z,99336.00
2023-02-27T23:53:25.022Z,99325.00
2023-02-27T23:56:23.595Z,99330.00
2023-02-27T23:59:11.118Z,99323.00
